createdAt,value
2024-04-30T00:01:17.787Z,101206.78
2024-04-30T00:04:04.794Z,101205.19
2024-04-30T00:06:45.053Z,101207.59
2024-04-30T00:09:31.641Z,101214.47
2024-04-30T00:12:25.633Z,101214.78
2024-04-30T00:15:06.596Z,101199.41
2024-04-30T00:17:53.648Z,101207.75
2024-04-30T00:20:34.057Z,101202.84
2024-04-30T00:23:20.625Z,101198.44
2024-04-30T00:26:07.643Z,101198.13
2024-04-30T00:28:47.727Z,101205.63
2024-04-30T00:31:34.682Z,101196.03
2024-04-30T00:34:21.639Z,101209.22
2024-04-30T00:37:08.608Z,101204.00
2024-04-30T00:39:48.797Z,101206.78
2024-04-30T00:42:36.622Z,101198.66
2024-04-30T00:45:16.732Z,101205.34
2024-04-30T00:48:03.682Z,101201.59
2024-04-30T00:50:47.735Z,101196.56
2024-04-30T00:53:34.605Z,101189.22
2024-04-30T00:56:22.571Z,101205.56
2024-04-30T00:59:09.605Z,101192.19
2024-04-30T01:01:49.782Z,101196.13
2024-04-30T01:04:36.654Z,101194.00
2024-04-30T01:07:16.743Z,101201.16
2024-04-30T01:10:03.608Z,101202.13
2024-04-30T01:12:51.740Z,101205.88
2024-04-30T01:15:31.550Z,101202.31
2024-04-30T01:18:11.950Z,101206.41
2024-04-30T01:20:58.579Z,101205.72
2024-04-30T01:23:39.064Z,101208.84
2024-04-30T01:26:25.540Z,101210.81
2024-04-30T01:29:06.000Z,101207.22
2024-04-30T01:31:52.575Z,101202.66
2024-04-30T01:34:33.006Z,101209.34
2024-04-30T01:37:19.627Z,101211.00
2024-04-30T01:39:59.932Z,101207.25
2024-04-30T01:42:46.541Z,101207.09
2024-04-30T01:45:27.079Z,101206.78
2024-04-30T01:48:20.631Z,101218.19
2024-04-30T01:51:00.972Z,101207.91
2024-04-30T01:53:47.503Z,101193.06
2024-04-30T01:56:27.943Z,101197.13
2024-04-30T01:59:14.514Z,101208.41
2024-04-30T02:01:55.050Z,101204.63
2024-04-30T02:04:48.796Z,101206.59
2024-04-30T02:07:32.969Z,101214.44
2024-04-30T02:10:19.681Z,101219.16
2024-04-30T02:13:13.532Z,101212.47
2024-04-30T02:15:53.918Z,101216.53
2024-04-30T02:18:40.479Z,101234.84
2024-04-30T02:21:20.976Z,101226.16
2024-04-30T02:24:07.487Z,101222.59
2024-04-30T02:26:47.866Z,101220.28
2024-04-30T02:29:34.495Z,101226.16
2024-04-30T02:32:50.354Z,101220.59
2024-04-30T02:35:37.507Z,101224.84
2024-04-30T02:38:17.867Z,101223.72
2024-04-30T02:41:04.443Z,101220.59
2024-04-30T02:43:44.925Z,101219.28
2024-04-30T02:46:38.550Z,101225.81
2024-04-30T02:49:18.914Z,101215.69
2024-04-30T02:52:05.534Z,101222.41
2024-04-30T02:54:45.829Z,101225.84
2024-04-30T02:57:32.453Z,101219.16
2024-04-30T03:00:13.525Z,101235.00
2024-04-30T03:03:00.548Z,101239.72
2024-04-30T03:05:40.909Z,101235.47
2024-04-30T03:08:27.458Z,101236.28
2024-04-30T03:11:21.494Z,101239.25
2024-04-30T03:14:08.445Z,101244.31
2024-04-30T03:16:49.516Z,101242.50
2024-04-30T03:19:36.462Z,101244.47
2024-04-30T03:22:16.571Z,101250.00
2024-04-30T03:25:03.424Z,101251.47
2024-04-30T03:27:43.495Z,101262.59
2024-04-30T03:30:30.402Z,101260.78
2024-04-30T03:33:17.590Z,101259.47
2024-04-30T03:35:57.413Z,101269.44
2024-04-30T03:38:47.537Z,101281.50
2024-04-30T03:41:27.423Z,101269.44
2024-04-30T03:44:14.552Z,101284.28
2024-04-30T03:47:01.549Z,101281.66
2024-04-30T03:49:48.396Z,101282.31
2024-04-30T03:52:28.824Z,101277.91
2024-04-30T03:55:15.420Z,101277.59
2024-04-30T03:58:02.467Z,101292.31
2024-04-30T04:00:49.387Z,101289.69
2024-04-30T04:03:29.865Z,101291.66
2024-04-30T04:06:17.757Z,101294.09
2024-04-30T04:09:05.492Z,101289.19
2024-04-30T04:12:17.433Z,101286.25
2024-04-30T04:15:04.331Z,101286.25
2024-04-30T04:17:44.580Z,101275.00
2024-04-30T04:20:31.369Z,101285.44
2024-04-30T04:23:18.370Z,101292.00
2024-04-30T04:25:58.732Z,101286.47
2024-04-30T04:28:45.315Z,101313.72
2024-04-30T04:31:32.489Z,101299.38
2024-04-30T04:34:19.454Z,101297.06
2024-04-30T04:37:00.538Z,101302.47
2024-04-30T04:39:40.758Z,101294.16
2024-04-30T04:42:27.338Z,101292.34
2024-04-30T04:45:07.869Z,101312.75
2024-04-30T04:48:01.363Z,101308.53
2024-04-30T04:50:42.866Z,101285.00
2024-04-30T04:53:30.449Z,101296.47
2024-04-30T04:56:17.440Z,101274.09
2024-04-30T04:58:57.367Z,101317.31
2024-04-30T05:01:37.799Z,101308.38
2024-04-30T05:04:24.409Z,101307.03
2024-04-30T05:07:11.331Z,101304.78
2024-04-30T05:10:01.322Z,101305.41
2024-04-30T05:12:48.288Z,101310.16
2024-04-30T05:15:35.283Z,101315.53
2024-04-30T05:18:15.645Z,101310.16
2024-04-30T05:21:02.289Z,101316.03
2024-04-30T05:23:42.618Z,101336.75
2024-04-30T05:26:29.288Z,101330.69
2024-04-30T05:29:09.633Z,101336.56
2024-04-30T05:31:56.251Z,101339.69
2024-04-30T05:34:43.450Z,101328.41
2024-04-30T05:37:23.262Z,101336.53
2024-04-30T05:40:10.396Z,101339.31
2024-04-30T05:42:50.243Z,101345.81
2024-04-30T05:45:37.263Z,101343.69
2024-04-30T05:48:17.340Z,101348.13
2024-04-30T05:51:04.243Z,101351.38
2024-04-30T05:53:52.904Z,101343.88
2024-04-30T05:56:41.210Z,101353.53
2024-04-30T05:59:21.310Z,101357.75
2024-04-30T06:02:08.203Z,101355.66
2024-04-30T06:04:48.427Z,101357.94
2024-04-30T06:07:35.271Z,101367.41
2024-04-30T06:10:15.359Z,101361.69
2024-04-30T06:13:02.319Z,101359.03
2024-04-30T06:15:42.428Z,101342.69
2024-04-30T06:18:29.251Z,101357.44
2024-04-30T06:21:11.958Z,101334.94
2024-04-30T06:23:59.223Z,101356.94
2024-04-30T06:26:46.208Z,101364.47
2024-04-30T06:29:26.580Z,101367.59
2024-04-30T06:32:13.192Z,101359.91
2024-04-30T06:34:53.705Z,101359.13
2024-04-30T06:37:41.187Z,101378.69
2024-04-30T06:40:26.441Z,101381.13
2024-04-30T06:43:14.230Z,101374.78
2024-04-30T06:45:54.616Z,101392.41
2024-04-30T06:48:48.238Z,101376.22
2024-04-30T06:51:35.246Z,101392.22
2024-04-30T06:54:15.136Z,101407.28
2024-04-30T06:57:02.312Z,101392.75
2024-04-30T06:59:42.207Z,101386.19
2024-04-30T07:02:23.327Z,101397.94
2024-04-30T07:05:10.360Z,101397.41
2024-04-30T07:07:50.522Z,101396.59
2024-04-30T07:10:37.233Z,101389.75
2024-04-30T07:13:24.246Z,101394.00
2024-04-30T07:16:04.285Z,101397.25
2024-04-30T07:18:44.668Z,101412.94
2024-04-30T07:21:32.142Z,101410.16
2024-04-30T07:24:12.449Z,101398.38
2024-04-30T07:27:01.161Z,101396.94
2024-04-30T07:29:41.484Z,101403.75
2024-04-30T07:32:28.239Z,101395.88
2024-04-30T07:35:08.524Z,101398.31
2024-04-30T07:37:55.109Z,101385.28
2024-04-30T07:40:42.257Z,101370.31
2024-04-30T07:43:22.228Z,101397.84
2024-04-30T07:46:02.556Z,101386.41
2024-04-30T07:48:49.249Z,101410.22
2024-04-30T07:51:36.252Z,101401.50
2024-04-30T07:54:16.087Z,101374.59
2024-04-30T07:57:03.085Z,101380.44
2024-04-30T07:59:43.215Z,101403.94
2024-04-30T08:13:51.802Z,101417.56
2024-04-30T08:16:39.369Z,101402.94
2024-04-30T08:19:19.961Z,101399.19
2024-04-30T08:22:06.805Z,101399.38
2024-04-30T08:24:46.843Z,101391.72
2024-04-30T08:27:33.742Z,101401.06
2024-04-30T08:30:21.743Z,101407.75
2024-04-30T08:33:08.923Z,101396.38
2024-04-30T08:35:49.747Z,101410.56
2024-04-30T08:38:30.130Z,101407.94
2024-04-30T08:41:20.798Z,101374.66
2024-04-30T08:44:02.262Z,101397.34
2024-04-30T08:46:50.806Z,101414.31
2024-04-30T08:49:38.683Z,101394.59
2024-04-30T08:52:34.805Z,101398.16
2024-04-30T08:55:24.926Z,101418.25
2024-04-30T08:58:04.820Z,101407.16
2024-04-30T09:00:52.402Z,101390.81
2024-04-30T09:03:33.752Z,101397.22
2024-04-30T09:06:28.823Z,101373.31
2024-04-30T09:09:22.712Z,101395.09
2024-04-30T09:12:17.716Z,101412.09
2024-04-30T09:14:58.092Z,101402.94
2024-04-30T09:17:44.800Z,101389.88
2024-04-30T09:20:25.206Z,101394.19
2024-04-30T09:23:11.717Z,101380.78
2024-04-30T09:25:52.087Z,101398.53
2024-04-30T09:28:38.813Z,101400.81
2024-04-30T09:31:25.814Z,101398.25
2024-04-30T09:34:06.715Z,101389.19
2024-04-30T09:36:47.003Z,101400.41
2024-04-30T09:39:35.674Z,101422.34
2024-04-30T09:42:23.654Z,101423.38
2024-04-30T09:45:12.682Z,101437.75
2024-04-30T09:47:54.827Z,101431.22
2024-04-30T09:50:45.669Z,101397.44
2024-04-30T09:53:33.694Z,101438.00
2024-04-30T09:56:13.733Z,101436.81
2024-04-30T09:59:00.647Z,101441.28
2024-04-30T10:01:41.784Z,101436.53
2024-04-30T10:04:29.674Z,101430.16
2024-04-30T10:07:11.856Z,101435.75
2024-04-30T10:10:02.656Z,101429.47
2024-04-30T10:12:56.662Z,101431.13
2024-04-30T10:15:43.620Z,101429.84
2024-04-30T10:18:34.670Z,101439.66
2024-04-30T10:21:21.643Z,101451.75
2024-04-30T10:24:02.184Z,101441.78
2024-04-30T10:26:51.716Z,101446.50
2024-04-30T10:29:31.747Z,101447.47
2024-04-30T10:32:18.660Z,101452.75
2024-04-30T10:35:02.711Z,101453.72
2024-04-30T10:37:50.661Z,101443.22
2024-04-30T10:40:40.699Z,101456.50
2024-04-30T10:43:30.842Z,101443.56
2024-04-30T10:46:22.667Z,101461.88
2024-04-30T10:49:12.719Z,101422.16
2024-04-30T10:51:52.601Z,101452.69
2024-04-30T10:54:33.249Z,101451.53
2024-04-30T10:57:20.626Z,101463.00
2024-04-30T11:00:04.646Z,101438.78
2024-04-30T11:02:52.609Z,101448.25
2024-04-30T11:05:39.591Z,101422.13
2024-04-30T11:08:20.230Z,101422.13
2024-04-30T11:11:18.616Z,101419.81
2024-04-30T11:14:05.639Z,101434.56
2024-04-30T11:16:45.591Z,101432.13
2024-04-30T11:19:25.958Z,101410.78
2024-04-30T11:22:12.613Z,101425.53
2024-04-30T11:24:52.972Z,101423.88
2024-04-30T11:27:39.550Z,101417.34
2024-04-30T11:30:19.926Z,101426.31
2024-04-30T11:33:06.619Z,101421.59
2024-04-30T11:35:53.663Z,101427.97
2024-04-30T11:38:40.711Z,101440.34
2024-04-30T11:41:20.651Z,101428.44
2024-04-30T11:44:07.540Z,101438.84
2024-04-30T11:46:47.650Z,101440.47
2024-04-30T11:49:34.591Z,101455.34
2024-04-30T11:52:14.681Z,101444.38
2024-04-30T11:55:08.645Z,101429.09
2024-04-30T11:57:48.926Z,101440.66
2024-04-30T12:00:37.880Z,101436.94
2024-04-30T12:03:26.883Z,101434.94
2024-04-30T12:06:09.504Z,101433.28
2024-04-30T12:08:49.951Z,101426.09
2024-04-30T12:11:43.536Z,101417.31
2024-04-30T12:14:30.628Z,101410.47
2024-04-30T12:17:10.539Z,101402.19
2024-04-30T12:19:57.488Z,101377.69
2024-04-30T12:22:40.002Z,101364.28
2024-04-30T12:25:26.483Z,101388.41
2024-04-30T12:28:14.559Z,101384.00
2024-04-30T12:31:01.552Z,101373.06
2024-04-30T12:33:41.740Z,101374.22
2024-04-30T12:36:28.453Z,101370.28
2024-04-30T12:39:08.724Z,101380.06
2024-04-30T12:41:55.561Z,101381.66
2024-04-30T12:44:36.456Z,101354.78
2024-04-30T12:47:23.529Z,101357.22
2024-04-30T12:50:03.552Z,101363.41
2024-04-30T12:52:50.731Z,101373.84
2024-04-30T12:55:31.852Z,101383.63
2024-04-30T12:58:20.493Z,101384.44
2024-04-30T13:01:00.579Z,101375.94
2024-04-30T13:03:47.472Z,101376.44
2024-04-30T13:06:34.502Z,101383.75
2024-04-30T13:09:15.427Z,101374.13
2024-04-30T13:12:09.456Z,101382.44
2024-04-30T13:14:56.400Z,101359.75
2024-04-30T13:17:36.510Z,101377.53
2024-04-30T13:20:23.415Z,101378.66
2024-04-30T13:23:03.604Z,101383.03
2024-04-30T13:25:50.468Z,101368.03
2024-04-30T13:28:30.542Z,101366.25
2024-04-30T13:31:17.465Z,101365.72
2024-04-30T13:34:04.401Z,101364.25
2024-04-30T13:36:44.914Z,101372.09
2024-04-30T13:39:31.432Z,101356.28
2024-04-30T13:42:18.394Z,101380.38
2024-04-30T13:44:58.458Z,101374.66
2024-04-30T13:47:45.428Z,101400.09
2024-04-30T13:50:25.560Z,101408.91
2024-04-30T13:53:12.436Z,101371.91
2024-04-30T13:55:52.473Z,101399.91
2024-04-30T13:58:39.486Z,101420.00
2024-04-30T14:01:30.443Z,101400.09
2024-04-30T14:04:10.980Z,101399.09
2024-04-30T14:06:58.339Z,101383.09
2024-04-30T14:09:38.735Z,101421.25
2024-04-30T14:12:25.342Z,101415.03
2024-04-30T14:15:12.319Z,101435.84
2024-04-30T14:17:52.494Z,101428.66
2024-04-30T14:20:39.328Z,101419.22
2024-04-30T14:23:19.408Z,101411.88
2024-04-30T14:26:08.386Z,101420.34
2024-04-30T14:28:48.457Z,101419.56
2024-04-30T14:31:35.394Z,101395.69
2024-04-30T14:34:15.554Z,101403.88
2024-04-30T14:37:02.325Z,101382.34
2024-04-30T14:39:42.549Z,101396.34
2024-04-30T14:42:30.373Z,101380.72
2024-04-30T14:45:10.416Z,101402.44
2024-04-30T14:47:57.381Z,101392.81
2024-04-30T14:50:38.860Z,101393.63
2024-04-30T14:53:26.583Z,101389.41
2024-04-30T14:56:06.360Z,101392.19
2024-04-30T14:58:53.274Z,101395.59
2024-04-30T15:01:33.398Z,101391.66
2024-04-30T15:04:20.361Z,101403.25
2024-04-30T15:07:07.261Z,101400.31
2024-04-30T15:10:00.448Z,101386.13
2024-04-30T15:12:54.419Z,101381.41
2024-04-30T15:15:41.232Z,101382.88
2024-04-30T15:18:28.303Z,101375.19
2024-04-30T15:21:15.450Z,101373.91
2024-04-30T15:23:55.277Z,101370.31
2024-04-30T15:26:39.137Z,101372.91
2024-04-30T15:29:26.255Z,101368.72
2024-04-30T15:32:06.874Z,101358.94
2024-04-30T15:34:54.252Z,101348.19
2024-04-30T15:37:41.450Z,101363.66
2024-04-30T15:40:21.307Z,101347.56
2024-04-30T15:43:01.554Z,101350.34
2024-04-30T15:45:48.198Z,101356.34
2024-04-30T15:48:28.760Z,101367.94
2024-04-30T15:51:19.291Z,101352.78
2024-04-30T15:53:59.551Z,101350.34
2024-04-30T15:56:53.852Z,101354.41
2024-04-30T15:59:46.521Z,101362.41
2024-04-30T16:02:26.197Z,101348.34
2024-04-30T16:05:08.478Z,101344.28
2024-04-30T16:07:55.330Z,101347.56
2024-04-30T16:10:35.648Z,101350.19
2024-04-30T16:13:22.281Z,101354.59
2024-04-30T16:16:16.534Z,101335.38
2024-04-30T16:18:58.173Z,101344.50
2024-04-30T16:21:38.824Z,101357.06
2024-04-30T16:24:26.372Z,101338.78
2024-04-30T16:27:06.541Z,101356.41
2024-04-30T16:29:53.237Z,101353.47
2024-04-30T16:32:33.638Z,101358.47
2024-04-30T16:35:21.175Z,101353.16
2024-04-30T16:38:01.591Z,101354.16
2024-04-30T16:40:49.176Z,101355.47
2024-04-30T16:43:29.466Z,101351.69
2024-04-30T16:46:16.100Z,101341.44
2024-04-30T16:49:05.925Z,101348.91
2024-04-30T16:51:48.390Z,101346.78
2024-04-30T16:54:36.178Z,101342.56
2024-04-30T16:57:16.529Z,101343.19
2024-04-30T17:00:03.175Z,101349.06
2024-04-30T17:02:50.193Z,101342.09
2024-04-30T17:05:37.144Z,101352.13
2024-04-30T17:08:17.396Z,101342.09
2024-04-30T17:11:06.187Z,101343.97
2024-04-30T17:14:00.087Z,101334.19
2024-04-30T17:16:47.287Z,101340.25
2024-04-30T17:19:27.110Z,101346.91
2024-04-30T17:22:14.129Z,101349.06
2024-04-30T17:24:57.192Z,101348.22
2024-04-30T17:27:44.104Z,101349.56
2024-04-30T17:30:31.158Z,101346.28
2024-04-30T17:33:18.138Z,101348.91
2024-04-30T17:35:58.145Z,101348.91
2024-04-30T17:38:45.028Z,101353.81
2024-04-30T17:41:32.224Z,101365.41
2024-04-30T17:44:19.025Z,101370.63
2024-04-30T17:46:59.227Z,101379.75
2024-04-30T17:49:46.060Z,101389.19
2024-04-30T17:52:26.890Z,101391.66
2024-04-30T17:55:15.045Z,101388.69
2024-04-30T17:57:55.215Z,101406.44
2024-04-30T18:00:42.079Z,101389.81
2024-04-30T18:03:22.373Z,101409.34
2024-04-30T18:06:09.057Z,101403.31
2024-04-30T18:08:49.631Z,101407.34
2024-04-30T18:11:37.092Z,101411.25
2024-04-30T18:14:24.087Z,101402.44
2024-04-30T18:17:11.067Z,101388.69
2024-04-30T18:19:58.009Z,101385.34
2024-04-30T18:22:47.020Z,101389.53
2024-04-30T18:25:27.113Z,101401.94
2024-04-30T18:28:13.991Z,101398.97
2024-04-30T18:30:54.160Z,101395.88
2024-04-30T18:33:41.054Z,101406.13
2024-04-30T18:36:30.154Z,101385.44
2024-04-30T18:39:15.146Z,101396.00
2024-04-30T18:42:02.070Z,101388.53
2024-04-30T18:44:42.648Z,101393.75
2024-04-30T18:47:30.025Z,101376.63
2024-04-30T18:50:10.360Z,101389.34
2024-04-30T18:52:56.976Z,101398.97
2024-04-30T18:55:44.112Z,101396.72
2024-04-30T18:58:24.014Z,101390.66
2024-04-30T19:01:04.761Z,101395.69
2024-04-30T19:03:53.558Z,101393.13
2024-04-30T19:06:34.394Z,101373.72
2024-04-30T19:09:22.154Z,101373.72
2024-04-30T19:12:09.059Z,101365.63
2024-04-30T19:15:03.048Z,101365.31
2024-04-30T19:17:43.429Z,101348.88
2024-04-30T19:20:29.956Z,101341.25
2024-04-30T19:23:16.959Z,101341.44
2024-04-30T19:26:04.149Z,101342.25
2024-04-30T19:28:44.292Z,101341.75
2024-04-30T19:31:31.954Z,101340.31
2024-04-30T19:34:14.789Z,101332.66
2024-04-30T19:37:01.968Z,101339.06
2024-04-30T19:39:49.120Z,101335.50
2024-04-30T19:42:35.970Z,101329.38
2024-04-30T19:45:23.210Z,101341.13
2024-04-30T19:48:03.036Z,101337.03
2024-04-30T19:50:56.871Z,101319.66
2024-04-30T19:53:37.320Z,101306.28
2024-04-30T20:11:37.566Z,101299.31
2024-04-30T20:14:24.475Z,101304.16
2024-04-30T20:17:04.577Z,101295.06
2024-04-30T20:19:51.451Z,101300.97
2024-04-30T20:22:39.557Z,101304.09
2024-04-30T20:25:34.482Z,101290.38
2024-04-30T20:28:14.836Z,101291.88
2024-04-30T20:31:01.484Z,101287.78
2024-04-30T20:33:48.527Z,101262.34
2024-04-30T20:36:29.144Z,101284.38
2024-04-30T20:39:16.432Z,101272.28
2024-04-30T20:41:56.511Z,101281.44
2024-04-30T20:44:43.428Z,101283.88
2024-04-30T20:47:23.621Z,101278.66
2024-04-30T20:50:10.405Z,101289.94
2024-04-30T20:53:04.399Z,101297.59
2024-04-30T20:55:51.506Z,101284.38
2024-04-30T20:58:31.428Z,101290.91
2024-04-30T21:01:16.913Z,101293.00
2024-04-30T21:04:11.605Z,101288.13
2024-04-30T21:06:58.466Z,101290.41
2024-04-30T21:09:38.838Z,101284.53
2024-04-30T21:12:25.409Z,101290.91
2024-04-30T21:15:12.386Z,101282.75
2024-04-30T21:17:59.444Z,101273.28
2024-04-30T21:20:39.443Z,101275.88
2024-04-30T21:23:28.414Z,101266.25
2024-04-30T21:26:15.375Z,101279.47
2024-04-30T21:29:02.406Z,101279.47
2024-04-30T21:31:42.443Z,101277.03
2024-04-30T21:34:29.408Z,101265.28
2024-04-30T21:37:16.371Z,101275.06
2024-04-30T21:40:03.431Z,101272.78
2024-04-30T21:42:43.530Z,101265.44
2024-04-30T21:45:30.364Z,101255.00
2024-04-30T21:48:17.398Z,101255.66
2024-04-30T21:51:04.354Z,101244.06
2024-04-30T21:53:51.345Z,101242.75
2024-04-30T21:56:38.486Z,101234.44
2024-04-30T21:59:18.340Z,101235.41
2024-04-30T22:02:05.361Z,101233.13
2024-04-30T22:04:53.358Z,101241.28
2024-04-30T22:07:40.314Z,101213.22
2024-04-30T22:10:34.372Z,101225.63
2024-04-30T22:13:21.323Z,101223.50
2024-04-30T22:16:09.350Z,101220.41
2024-04-30T22:18:56.355Z,101211.44
2024-04-30T22:21:43.356Z,101210.44
2024-04-30T22:24:30.298Z,101211.59
2024-04-30T22:27:17.261Z,101203.78
2024-04-30T22:30:05.792Z,101205.06
2024-04-30T22:33:00.375Z,101196.06
2024-04-30T22:35:40.378Z,101201.81
2024-04-30T22:38:27.280Z,101192.16
2024-04-30T22:41:14.317Z,101193.81
2024-04-30T22:43:54.672Z,101190.53
2024-04-30T22:46:41.264Z,101187.44
2024-04-30T22:49:28.292Z,101188.59
2024-04-30T22:52:08.373Z,101183.53
2024-04-30T22:54:57.350Z,101180.44
2024-04-30T22:57:44.306Z,101174.09
2024-04-30T23:00:31.419Z,101183.84
2024-04-30T23:03:11.327Z,101183.53
2024-04-30T23:05:58.243Z,101177.16
2024-04-30T23:08:38.354Z,101182.06
2024-04-30T23:11:25.380Z,101172.09
2024-04-30T23:14:12.223Z,101166.22
2024-04-30T23:16:59.244Z,101163.13
2024-04-30T23:19:46.255Z,101148.28
2024-04-30T23:22:33.377Z,101157.09
2024-04-30T23:25:13.223Z,101147.47
2024-04-30T23:27:53.726Z,101143.88
2024-04-30T23:30:41.261Z,101133.31
2024-04-30T23:33:21.633Z,101134.09
2024-04-30T23:36:08.231Z,101132.47
2024-04-30T23:38:48.638Z,101123.81
2024-04-30T23:41:35.227Z,101131.97
2024-04-30T23:44:15.569Z,101127.22
2024-04-30T23:47:02.246Z,101129.66
2024-04-30T23:49:42.566Z,101123.31
2024-04-30T23:52:29.220Z,101122.34
2024-04-30T23:55:16.205Z,101116.78
2024-04-30T23:58:03.200Z,101129.84
